Time;durP1;ratioP1;P1;durP2;ratioP2;P2;SDS_P1;SDS_P2;PMS_P1;PMS_P2;Temp;Humidity;BMP_temperature;BMP_pressure;BME280_temperature;BME280_humidity;BME280_pressure;Samples;Min_cycle;Max_cycle;Signal;HPM_P1;HPM_P2
2022/04/14 00:01:49;;;;;;;2.87;2.70;;;;;;;11.48;47.19;99924.50;5112577;28;20205;-50
2022/04/14 00:04:15;;;;;;;3.23;3.03;;;;;;;11.47;47.17;99919.34;5112381;28;20222;-50
2022/04/14 00:06:42;;;;;;;3.43;3.00;;;;;;;11.47;47.59;99922.78;5112523;28;20194;-51
2022/04/14 00:09:09;;;;;;;3.17;2.97;;;;;;;11.46;47.86;99922.81;5112453;28;20206;-52
2022/04/14 00:11:38;;;;;;;4.93;3.03;;;;;;;11.48;48.08;99926.25;5112323;28;20290;-51
2022/04/14 00:14:05;;;;;;;3.00;2.80;;;;;;;11.49;47.61;99923.63;5111846;28;20190;-51
2022/04/14 00:16:33;;;;;;;5.03;3.17;;;;;;;11.33;48.23;99922.28;5112126;28;20194;-51
2022/04/14 00:19:00;;;;;;;3.07;2.77;;;;;;;11.07;49.12;99924.66;5112098;28;20191;-50
2022/04/14 00:21:27;;;;;;;3.33;3.03;;;;;;;11.01;49.92;99917.03;5112194;28;20212;-50
2022/04/14 00:23:54;;;;;;;3.67;3.07;;;;;;;10.95;49.65;99919.78;5111775;28;20785;-50
2022/04/14 00:26:21;;;;;;;4.53;3.40;;;;;;;10.96;49.55;99921.47;5111928;28;20304;-50
2022/04/14 00:28:48;;;;;;;5.13;3.63;;;;;;;11.04;49.53;99925.63;5111756;28;20203;-49
2022/04/14 00:31:15;;;;;;;3.70;3.40;;;;;;;10.99;50.27;99924.84;5112127;28;20574;-50
2022/04/14 00:33:43;;;;;;;3.70;3.40;;;;;;;10.99;50.46;99926.59;5112113;28;20213;-50
2022/04/14 00:36:10;;;;;;;3.70;3.40;;;;;;;11.03;50.21;99929.09;5111824;28;20618;-49
2022/04/14 00:38:37;;;;;;;3.67;3.37;;;;;;;11.06;50.32;99935.97;5111976;28;20220;-50
2022/04/14 00:41:04;;;;;;;4.40;3.40;;;;;;;11.02;50.80;99929.13;5111671;28;20199;-51
2022/04/14 00:43:32;;;;;;;5.13;3.80;;;;;;;11.08;50.00;99934.16;5111756;28;20680;-50
2022/04/14 00:46:00;;;;;;;3.97;3.57;;;;;;;11.01;50.26;99937.81;5111621;28;20197;-51
2022/04/14 00:48:28;;;;;;;4.93;3.40;;;;;;;10.95;50.77;99930.19;5111596;28;20195;-51
2022/04/14 00:50:57;;;;;;;4.47;3.60;;;;;;;10.86;50.74;99937.28;5111405;28;20675;-51
2022/04/14 00:53:24;;;;;;;4.53;3.60;;;;;;;10.80;51.52;99927.03;5111784;28;20582;-50
2022/04/14 00:55:52;;;;;;;4.30;3.90;;;;;;;10.77;51.60;99932.31;5110298;28;20194;-51
2022/04/14 00:58:20;;;;;;;4.00;3.70;;;;;;;10.70;52.00;99929.88;5111125;28;20284;-49
2022/04/14 01:00:47;;;;;;;4.27;3.80;;;;;;;10.75;52.03;99930.63;5111194;28;20201;-52
2022/04/14 01:03:15;;;;;;;4.13;3.50;;;;;;;10.65;52.14;99935.16;5111256;28;20289;-49
2022/04/14 01:05:45;;;;;;;3.90;3.43;;;;;;;10.39;53.43;99934.88;5111048;28;20191;-49
2022/04/14 01:08:16;;;;;;;9.13;3.90;;;;;;;10.30;53.66;99942.84;5111448;28;20198;-49
2022/04/14 01:10:47;;;;;;;9.67;3.73;;;;;;;10.24;54.57;99940.41;5111110;28;20202;-49
2022/04/14 01:13:14;;;;;;;8.50;4.13;;;;;;;10.21;56.02;99940.47;5111241;28;20243;-50
2022/04/14 01:15:41;;;;;;;7.03;4.47;;;;;;;10.13;57.22;99940.59;5111249;28;20651;-51
2022/04/14 01:18:08;;;;;;;6.03;5.37;;;;;;;10.08;59.29;99948.47;5110823;28;20199;-50
2022/04/14 01:20:35;;;;;;;7.73;6.30;;;;;;;10.00;60.50;99944.31;5110961;28;20191;-50
2022/04/14 01:23:04;;;;;;;6.57;5.77;;;;;;;9.86;61.53;99949.75;5110958;28;20286;-48
2022/04/14 01:25:34;;;;;;;7.87;6.97;;;;;;;9.70;61.73;99958.72;5110772;28;20201;-50
2022/04/14 01:28:03;;;;;;;7.80;6.53;;;;;;;9.66;63.06;99952.72;5110696;28;20197;-50
2022/04/14 01:30:30;;;;;;;11.40;7.10;;;;;;;9.28;64.71;99948.19;5110663;28;20198;-49
2022/04/14 01:32:57;;;;;;;9.07;7.67;;;;;;;9.30;65.18;99954.22;5110734;28;20197;-49
2022/04/14 01:35:25;;;;;;;11.47;8.17;;;;;;;9.34;65.00;99952.44;5111008;28;20686;-49
2022/04/14 01:37:52;;;;;;;10.17;8.53;;;;;;;9.27;64.90;99949.06;5110585;28;20198;-50
2022/04/14 01:40:19;;;;;;;9.87;8.83;;;;;;;9.10;66.81;99956.28;5110750;28;20285;-50
2022/04/14 01:42:47;;;;;;;9.57;7.80;;;;;;;8.92;68.50;99957.41;5110586;28;20195;-51
2022/04/14 01:45:14;;;;;;;11.53;8.10;;;;;;;8.93;69.11;99958.25;5110473;28;20601;-49
2022/04/14 01:47:42;;;;;;;10.13;8.30;;;;;;;8.81;68.60;99946.34;5110568;28;20197;-50
2022/04/14 01:50:10;;;;;;;10.20;9.20;;;;;;;8.77;69.36;99964.56;5110526;28;20644;-48
2022/04/14 01:52:37;;;;;;;13.23;8.77;;;;;;;8.57;71.15;99965.69;5110573;28;20195;-50
2022/04/14 01:55:05;;;;;;;12.63;9.07;;;;;;;8.55;71.98;99961.41;5110357;28;20190;-49
2022/04/14 01:57:32;;;;;;;10.23;9.00;;;;;;;8.57;72.32;99965.69;5110520;28;20605;-46
2022/04/14 02:00:01;;;;;;;12.50;9.53;;;;;;;8.58;72.80;99969.97;5110164;28;20197;-48
2022/04/14 02:02:28;;;;;;;14.40;9.17;;;;;;;8.52;73.86;99962.31;5110693;28;20635;-47
2022/04/14 02:04:55;;;;;;;14.60;8.90;;;;;;;8.50;74.61;99982.16;5110390;28;20226;-47
2022/04/14 02:07:22;;;;;;;12.07;9.87;;;;;;;8.32;76.42;99983.25;5113506;28;20203;-48
2022/04/14 02:09:49;;;;;;;11.87;9.40;;;;;;;8.22;76.86;99980.78;5114689;28;20285;-48
2022/04/14 02:12:16;;;;;;;12.63;9.10;;;;;;;8.19;77.00;99981.66;5114405;28;20205;-48
2022/04/14 02:14:43;;;;;;;12.30;9.10;;;;;;;8.16;76.52;99980.81;5114891;28;20213;-49
2022/04/14 02:17:11;;;;;;;9.97;9.00;;;;;;;8.17;76.08;99985.13;5114689;28;20670;-50
2022/04/14 02:19:38;;;;;;;10.07;8.97;;;;;;;8.10;76.63;99975.75;5114684;28;20195;-49
2022/04/14 02:22:05;;;;;;;14.37;9.67;;;;;;;8.07;77.38;99978.34;5114397;28;20551;-53
2022/04/14 02:24:32;;;;;;;14.33;9.47;;;;;;;8.14;76.74;99980.84;5114627;28;20580;-49
2022/04/14 02:26:59;;;;;;;12.97;8.50;;;;;;;8.18;75.11;99981.66;5122513;27;20236;-48
2022/04/14 02:29:26;;;;;;;8.77;7.87;;;;;;;8.19;74.90;99993.72;5127965;27;20209;-49
2022/04/14 02:31:57;;;;;;;13.53;9.90;;;;;;;8.05;75.82;99996.44;5134966;27;20204;-50
2022/04/14 02:34:26;;;;;;;10.13;8.20;;;;;;;7.96;77.43;99992.25;5134901;27;20199;-51
2022/04/14 02:36:53;;;;;;;13.40;7.70;;;;;;;7.95;77.33;99990.53;5134815;27;20190;-51
2022/04/14 02:39:20;;;;;;;10.13;8.00;;;;;;;7.88;78.13;99988.91;5134481;27;20207;-51
2022/04/14 02:41:47;;;;;;;9.10;7.53;;;;;;;7.73;80.84;99983.88;5134810;27;20216;-51
2022/04/14 02:44:13;;;;;;;9.17;7.93;;;;;;;7.67;82.13;99985.66;5134715;27;20768;-51
2022/04/14 02:46:40;;;;;;;8.63;7.73;;;;;;;7.65;80.51;99978.78;5134568;27;20205;-52
2022/04/14 02:49:07;;;;;;;12.40;7.57;;;;;;;7.67;78.72;99989.13;5134496;27;20202;-51
2022/04/14 02:51:36;;;;;;;8.60;6.93;;;;;;;7.70;76.35;99991.66;5127176;27;20186;-50
2022/04/14 02:54:02;;;;;;;8.43;6.70;;;;;;;7.69;74.56;99979.59;5123072;27;20282;-50
2022/04/14 02:56:29;;;;;;;13.07;7.00;;;;;;;7.67;73.73;99977.91;5128775;27;20582;-51
2022/04/14 02:58:56;;;;;;;8.57;7.63;;;;;;;7.62;74.65;99985.69;5134276;27;20198;-49
2022/04/14 03:01:23;;;;;;;14.60;7.73;;;;;;;7.79;73.90;99977.81;5120044;27;20215;-49
2022/04/14 03:03:50;;;;;;;8.73;7.73;;;;;;;7.78;73.35;99974.38;5091913;28;20249;-50
2022/04/14 03:06:17;;;;;;;9.17;7.23;;;;;;;7.79;74.15;99973.47;5119259;27;20214;-50
2022/04/14 03:08:45;;;;;;;12.10;7.90;;;;;;;7.61;75.23;99976.22;5121652;27;20222;-50
2022/04/14 03:11:13;;;;;;;10.70;7.30;;;;;;;7.53;75.37;99970.28;5119153;27;20223;-49
2022/04/14 03:13:40;;;;;;;12.87;8.30;;;;;;;7.39;76.31;99972.13;5122034;27;20625;-49
2022/04/14 03:16:07;;;;;;;19.07;9.60;;;;;;;7.35;76.78;99968.72;5120826;27;20224;-51
2022/04/14 03:18:34;;;;;;;10.90;8.60;;;;;;;7.45;76.29;99974.69;5107585;27;20222;-50
2022/04/14 03:21:01;;;;;;;13.07;7.67;;;;;;;7.55;75.51;99976.31;5109639;27;20228;-51
2022/04/14 03:23:28;;;;;;;9.07;7.73;;;;;;;7.49;75.84;99990.13;5122419;27;20218;-48
2022/04/14 03:25:56;;;;;;;14.77;7.87;;;;;;;7.38;76.79;99981.59;5123460;27;20640;-50
2022/04/14 03:28:23;;;;;;;9.40;7.90;;;;;;;7.31;78.92;99986.84;5121853;27;20218;-49
2022/04/14 03:30:50;;;;;;;10.57;7.57;;;;;;;7.23;79.46;99987.75;5119970;27;20220;-50
2022/04/14 03:33:18;;;;;;;15.97;7.80;;;;;;;7.23;79.06;99995.50;5112581;28;20594;-48
2022/04/14 03:35:45;;;;;;;16.97;8.00;;;;;;;7.19;81.11;99995.53;5112094;28;20659;-49
2022/04/14 03:38:12;;;;;;;14.43;7.97;;;;;;;7.19;81.20;100001.56;5125425;27;20304;-51
2022/04/14 03:40:39;;;;;;;7.80;7.10;;;;;;;7.24;81.45;100001.50;5120782;27;20283;-49
2022/04/14 03:43:07;;;;;;;15.50;8.20;;;;;;;7.18;80.19;100005.00;5120996;27;20229;-49
2022/04/14 03:45:34;;;;;;;8.40;7.50;;;;;;;7.15;79.05;100010.19;5119378;27;20226;-50
2022/04/14 03:48:01;;;;;;;12.90;7.67;;;;;;;7.22;78.17;100011.00;5121188;27;20656;-50
2022/04/14 03:50:28;;;;;;;13.27;7.90;;;;;;;7.25;77.36;100019.56;5118110;27;20213;-49
2022/04/14 03:52:55;;;;;;;8.00;6.60;;;;;;;7.28;76.34;100024.72;5117590;27;20578;-51
2022/04/14 03:55:22;;;;;;;10.97;7.10;;;;;;;7.23;75.70;100025.59;5121352;27;20197;-52
2022/04/14 03:57:49;;;;;;;11.23;7.03;;;;;;;7.22;75.83;100024.75;5122498;27;20660;-50
2022/04/14 04:00:17;;;;;;;12.10;7.43;;;;;;;7.23;75.00;100016.13;5120572;27;20197;-50
2022/04/14 04:02:44;;;;;;;13.77;7.63;;;;;;;7.35;74.57;100027.25;5123043;27;20277;-52
2022/04/14 04:05:11;;;;;;;11.23;7.47;;;;;;;7.36;73.97;100029.81;5131907;27;20221;-52
2022/04/14 04:07:38;;;;;;;13.40;7.57;;;;;;;7.41;72.92;100030.66;5132072;27;20193;-49
2022/04/14 04:10:06;;;;;;;13.70;8.53;;;;;;;7.45;72.37;100045.25;5123233;27;20304;-51
2022/04/14 04:12:33;;;;;;;18.63;9.17;;;;;;;7.58;71.17;100044.28;5118358;27;20594;-51
2022/04/14 04:15:00;;;;;;;15.30;9.07;;;;;;;7.60;71.03;100046.84;5120797;27;20191;-52
2022/04/14 04:17:28;;;;;;;19.07;9.53;;;;;;;7.76;69.89;100035.53;5116230;27;20186;-52
2022/04/14 04:19:56;;;;;;;14.93;9.13;;;;;;;7.78;68.65;100027.75;5131602;27;20212;-51
2022/04/14 04:22:22;;;;;;;11.57;8.47;;;;;;;7.98;67.72;100039.63;5119042;27;20195;-51
2022/04/14 04:24:49;;;;;;;12.00;7.60;;;;;;;8.47;66.89;100041.69;5118110;27;20216;-51
2022/04/14 04:27:16;;;;;;;18.00;8.27;;;;;;;9.34;63.13;100046.56;5131233;27;20240;-49
2022/04/14 04:29:43;;;;;;;13.00;8.00;;;;;;;10.66;57.57;100053.69;5113288;27;20218;-51
2022/04/14 04:32:10;;;;;;;14.90;8.23;;;;;;;12.13;52.45;100057.19;5112083;27;20245;-50
2022/04/14 04:34:39;;;;;;;8.80;7.53;;;;;;;12.87;48.94;100041.19;5111668;28;20215;-53
2022/04/14 04:37:06;;;;;;;11.23;7.27;;;;;;;13.84;46.56;100054.69;5111580;28;20667;-52
2022/04/14 04:39:33;;;;;;;11.27;7.60;;;;;;;14.87;43.11;100066.69;5123999;27;20218;-50
2022/04/14 04:42:00;;;;;;;15.03;6.90;;;;;;;15.90;40.85;100072.22;5119832;27;20222;-52
2022/04/14 04:44:27;;;;;;;12.37;6.87;;;;;;;17.43;38.13;100073.16;5124982;27;20222;-51
2022/04/14 04:46:54;;;;;;;9.63;6.37;;;;;;;18.25;35.31;100084.00;5113718;27;20232;-53
2022/04/14 04:49:21;;;;;;;7.07;6.37;;;;;;;18.39;34.78;100080.69;5111487;28;20549;-50
2022/04/14 04:51:49;;;;;;;12.23;7.27;;;;;;;19.61;33.06;100066.16;5110573;28;21078;-50
2022/04/14 04:54:16;;;;;;;10.57;8.20;;;;;;;21.07;30.60;100070.53;5111200;28;20745;-50
2022/04/14 04:56:43;;;;;;;11.48;8.65;;;;;;;20.64;30.59;100060.88;5110447;28;20234;-50
2022/04/14 04:59:10;;;;;;;17.65;10.63;;;;;;;20.23;31.13;100071.22;5110221;28;20245;-49
2022/04/14 05:01:37;;;;;;;19.23;11.55;;;;;;;20.33;30.94;100075.94;5116328;27;20218;-51
2022/04/14 05:04:05;;;;;;;23.15;12.85;;;;;;;21.46;29.76;100075.91;5110657;28;20218;-50
2022/04/14 05:06:31;;;;;;;25.65;12.93;;;;;;;22.20;28.40;100078.06;5110633;28;20217;-51
2022/04/14 05:09:00;;;;;;;20.63;12.63;;;;;;;22.43;28.09;100069.41;5111013;28;20223;-51
2022/04/14 05:11:27;;;;;;;25.42;12.80;;;;;;;23.05;27.20;100079.19;5110485;28;20794;-51
2022/04/14 05:13:54;;;;;;;19.58;10.75;;;;;;;23.49;26.66;100081.28;5110435;28;20241;-51
2022/04/14 05:16:20;;;;;;;13.50;8.32;;;;;;;24.13;25.88;100076.53;5120262;27;20228;-51
2022/04/14 05:18:47;;;;;;;10.32;6.85;;;;;;;24.71;25.22;100082.69;5131037;27;20233;-51
2022/04/14 05:21:15;;;;;;;11.18;6.95;;;;;;;25.12;24.66;100082.09;5116544;27;20231;-52
2022/04/14 05:23:41;;;;;;;6.22;5.72;;;;;;;25.23;24.37;100084.72;5110401;28;20233;-52
2022/04/14 05:26:10;;;;;;;9.85;5.38;;;;;;;25.64;23.86;100081.38;5116081;27;20238;-53
2022/04/14 05:28:37;;;;;;;4.90;4.47;;;;;;;25.55;24.06;100074.13;5117225;27;20221;-51
2022/04/14 05:31:04;;;;;;;9.20;5.55;;;;;;;26.29;23.46;100075.06;5121401;27;20682;-52
2022/04/14 05:33:31;;;;;;;10.48;5.28;;;;;;;26.36;23.08;100068.25;5130928;27;20228;-51
2022/04/14 05:35:58;;;;;;;7.32;4.90;;;;;;;25.82;23.90;100082.53;5126762;27;20693;-52
2022/04/14 05:38:25;;;;;;;6.45;5.35;;;;;;;25.66;23.88;100082.09;5107343;28;20222;-51
2022/04/14 05:40:52;;;;;;;11.65;5.72;;;;;;;25.96;23.51;100087.53;5109554;28;20314;-53
2022/04/14 05:43:21;;;;;;;10.90;5.85;;;;;;;26.93;22.86;100080.19;5110173;28;20253;-53
2022/04/14 05:45:49;;;;;;;6.93;6.18;;;;;;;27.30;22.38;100081.28;5109811;28;20234;-51
2022/04/14 05:48:16;;;;;;;5.45;5.00;;;;;;;27.07;22.15;100082.47;5110768;28;20594;-52
2022/04/14 05:50:44;;;;;;;6.90;5.97;;;;;;;26.02;23.60;100073.72;5109883;28;20636;-53
2022/04/14 05:53:11;;;;;;;7.07;6.30;;;;;;;25.81;23.71;100086.16;5109030;28;20218;-52
2022/04/14 05:55:39;;;;;;;9.38;6.65;;;;;;;26.56;23.18;100086.00;5109782;28;20313;-52
2022/04/14 05:58:06;;;;;;;19.08;7.20;;;;;;;26.89;22.77;100078.72;5109637;28;20230;-52
2022/04/14 06:00:37;;;;;;;8.45;7.28;;;;;;;26.43;23.17;100087.19;5109890;28;20214;-51
2022/04/14 06:03:04;;;;;;;8.32;6.68;;;;;;;26.52;23.10;100086.41;5111984;28;20224;-51
2022/04/14 06:05:32;;;;;;;10.90;7.80;;;;;;;25.64;23.92;100084.88;5115529;28;20675;-52
2022/04/14 06:07:59;;;;;;;9.90;7.65;;;;;;;25.82;23.95;100087.00;5117160;28;20281;-52
2022/04/14 06:10:27;;;;;;;11.27;6.70;;;;;;;25.68;23.86;100086.34;5119855;28;20194;-51
2022/04/14 06:12:55;;;;;;;16.27;7.20;;;;;;;25.91;24.02;100086.25;5120514;28;20707;-53
2022/04/14 06:15:22;;;;;;;10.88;8.85;;;;;;;26.35;23.66;100085.19;5119229;28;20193;-51
2022/04/14 06:17:51;;;;;;;11.40;7.20;;;;;;;26.41;23.79;100090.00;5123001;28;20194;-51
2022/04/14 06:20:18;;;;;;;11.38;8.45;;;;;;;26.27;23.95;100077.84;5130588;28;20198;-52
2022/04/14 06:22:45;;;;;;;15.43;7.40;;;;;;;27.08;23.42;100094.81;5130693;28;20202;-52
2022/04/14 06:25:13;;;;;;;9.38;7.65;;;;;;;27.23;23.20;100097.94;5121906;28;20220;-51
2022/04/14 06:27:41;;;;;;;9.70;7.93;;;;;;;27.23;23.12;100100.59;5120832;28;20226;-52
2022/04/14 06:30:10;;;;;;;14.68;7.82;;;;;;;27.32;23.23;100107.78;5109996;28;20198;-52
2022/04/14 06:32:37;;;;;;;12.60;8.73;;;;;;;27.63;23.21;100105.91;5110106;28;20256;-52
2022/04/14 06:35:07;;;;;;;9.32;7.72;;;;;;;27.29;23.25;100114.25;5110106;28;20281;-52
2022/04/14 06:37:34;;;;;;;8.30;7.20;;;;;;;27.04;23.45;100110.22;5110252;28;20205;-52
2022/04/14 06:40:02;;;;;;;9.48;7.90;;;;;;;26.92;23.69;100110.41;5110300;28;20682;-52
2022/04/14 06:42:29;;;;;;;10.63;7.45;;;;;;;26.77;24.23;100102.78;5110156;28;20577;-51
2022/04/14 06:44:58;;;;;;;8.43;6.88;;;;;;;26.84;23.69;100104.94;5109924;28;20218;-52
2022/04/14 06:47:26;;;;;;;8.23;6.85;;;;;;;27.44;22.99;100107.53;5110105;28;20637;-51
2022/04/14 06:49:53;;;;;;;9.73;7.90;;;;;;;28.13;22.57;100114.63;5109931;28;20206;-51
2022/04/14 06:52:21;;;;;;;8.38;6.90;;;;;;;27.99;22.50;100110.53;5110864;28;20204;-52
2022/04/14 06:54:48;;;;;;;8.45;6.60;;;;;;;28.30;22.07;100116.63;5113973;28;20191;-51
2022/04/14 06:57:16;;;;;;;8.20;6.82;;;;;;;28.63;22.11;100114.44;5114018;28;20195;-52
2022/04/14 06:59:43;;;;;;;10.85;6.95;;;;;;;29.55;21.40;100120.69;5113784;28;20195;-52
2022/04/14 07:02:10;;;;;;;8.00;7.30;;;;;;;30.30;20.71;100120.22;5113632;28;20220;-52
2022/04/14 07:04:37;;;;;;;11.63;6.72;;;;;;;29.73;20.97;100123.34;5113788;28;20198;-52
2022/04/14 07:07:05;;;;;;;7.95;7.25;;;;;;;29.56;21.24;100125.88;5112741;27;20202;-50
2022/04/14 07:09:34;;;;;;;8.30;6.10;;;;;;;29.42;21.24;100128.22;5113740;28;20198;-51
2022/04/14 07:12:01;;;;;;;6.53;5.90;;;;;;;29.22;20.99;100125.63;5113849;28;20281;-52
2022/04/14 07:14:28;;;;;;;6.50;5.90;;;;;;;29.52;21.20;100113.78;5118686;27;20732;-52
2022/04/14 07:16:55;;;;;;;8.02;6.35;;;;;;;29.66;21.13;100119.63;5124428;27;20653;-52
2022/04/14 07:19:22;;;;;;;8.93;7.07;;;;;;;29.86;21.35;100115.78;5122542;27;20290;-52
2022/04/14 07:21:49;;;;;;;11.43;6.45;;;;;;;30.18;20.93;100115.25;5122391;27;20201;-51
2022/04/14 07:24:16;;;;;;;7.38;6.60;;;;;;;30.26;20.75;100118.84;5118550;27;20197;-53
2022/04/14 07:26:45;;;;;;;8.43;7.00;;;;;;;29.48;21.36;100120.41;5112860;28;20226;-52
2022/04/14 07:29:12;;;;;;;8.13;7.43;;;;;;;29.96;21.25;100121.94;5113029;28;20195;-51
2022/04/14 07:31:40;;;;;;;11.38;6.88;;;;;;;30.53;20.66;100123.25;5113403;28;20217;-51
2022/04/14 07:34:13;;;;;;;10.45;7.30;;;;;;;29.84;21.43;100121.31;5126073;27;20190;-51
2022/04/14 07:36:41;;;;;;;8.50;7.55;;;;;;;29.85;21.34;100116.78;5132703;27;20194;-52
2022/04/14 07:39:09;;;;;;;10.32;8.38;;;;;;;29.29;21.56;100112.50;5116662;27;20198;-52
2022/04/14 07:41:36;;;;;;;9.93;7.50;;;;;;;29.23;21.84;100102.41;5112180;28;20194;-52
2022/04/14 07:44:05;;;;;;;7.03;6.43;;;;;;;29.43;21.44;100103.16;5125590;27;20190;-50
2022/04/14 07:46:32;;;;;;;10.07;7.47;;;;;;;29.39;21.38;100105.28;5133214;27;20230;-52
2022/04/14 07:48:59;;;;;;;8.13;7.10;;;;;;;28.72;22.14;100117.06;5133064;27;20921;-52
2022/04/14 07:51:26;;;;;;;7.78;7.28;;;;;;;29.17;21.54;100116.34;5111788;27;20267;-52
2022/04/14 07:53:53;;;;;;;7.68;6.90;;;;;;;29.29;21.60;100115.16;5111985;28;20299;-50
2022/04/14 07:56:22;;;;;;;8.40;7.38;;;;;;;30.08;20.74;100106.47;5111807;28;20231;-51
2022/04/14 07:58:49;;;;;;;9.18;7.28;;;;;;;30.61;20.38;100106.38;5111464;28;20245;-52
2022/04/14 08:01:18;;;;;;;8.25;7.40;;;;;;;31.51;19.66;100113.84;5111709;28;20254;-52
2022/04/14 08:03:46;;;;;;;8.05;6.80;;;;;;;31.97;19.52;100114.28;5110605;28;20226;-52
2022/04/14 08:06:14;;;;;;;12.98;6.60;;;;;;;31.98;18.91;100110.59;5125166;27;20302;-52
2022/04/14 08:08:41;;;;;;;10.98;6.22;;;;;;;32.17;18.23;100122.88;5111272;28;20202;-52
2022/04/14 08:11:10;;;;;;;10.52;7.60;;;;;;;32.41;18.72;100112.09;5112957;27;20201;-52
2022/04/14 08:13:38;;;;;;;10.27;7.85;;;;;;;32.57;18.54;100106.72;5120441;27;20202;-51
2022/04/14 08:16:06;;;;;;;13.82;7.22;;;;;;;32.61;18.10;100105.38;5121922;27;20678;-53
2022/04/14 08:18:36;;;;;;;16.48;9.90;;;;;;;32.93;17.35;100112.53;5114137;27;20279;-51
2022/04/14 08:21:03;;;;;;;10.63;9.00;;;;;;;33.39;17.36;100093.88;5110998;28;20690;-53
2022/04/14 08:23:31;;;;;;;8.20;6.45;;;;;;;34.43;16.63;100104.84;5110846;28;20582;-52
2022/04/14 08:25:59;;;;;;;6.20;5.35;;;;;;;34.07;16.16;100107.38;5110112;28;20236;-51
2022/04/14 08:28:26;;;;;;;7.90;4.82;;;;;;;34.21;15.65;100101.16;5110923;28;20532;-51
2022/04/14 08:30:54;;;;;;;5.63;4.90;;;;;;;34.54;15.91;100103.56;5110933;28;20198;-51
2022/04/14 08:33:24;;;;;;;4.50;4.10;;;;;;;34.29;15.86;100100.31;5110884;28;20249;-50
2022/04/14 08:35:55;;;;;;;5.43;4.95;;;;;;;32.32;16.92;100100.53;5110445;28;20194;-51
2022/04/14 08:38:22;;;;;;;7.32;5.20;;;;;;;31.46;17.58;100093.88;5110713;28;20702;-50
2022/04/14 08:40:57;;;;;;;8.15;5.88;;;;;;;31.52;17.40;100091.38;5110645;28;20234;-51
2022/04/14 08:43:32;;;;;;;9.77;6.10;;;;;;;30.93;18.26;100082.44;5110773;28;20195;-50
2022/04/14 08:46:01;;;;;;;6.10;5.60;;;;;;;31.11;18.20;100084.22;5111446;28;20222;-51
2022/04/14 08:48:29;;;;;;;6.82;6.20;;;;;;;30.76;18.51;100066.44;5111536;28;20190;-50
2022/04/14 08:50:57;;;;;;;8.70;6.30;;;;;;;31.52;18.11;100069.06;5111646;28;20191;-49
2022/04/14 08:53:25;;;;;;;7.60;6.22;;;;;;;31.77;18.00;100075.34;5111364;28;20281;-51
2022/04/14 08:55:53;;;;;;;11.57;6.15;;;;;;;30.28;18.64;100070.47;5108029;28;20643;-51
2022/04/14 08:58:26;;;;;;;6.60;6.00;;;;;;;30.85;18.58;100063.63;5110169;28;20258;-50
2022/04/14 09:00:54;;;;;;;6.13;5.68;;;;;;;31.81;18.04;100072.16;5107239;28;20218;-51
2022/04/14 09:03:21;;;;;;;8.10;5.97;;;;;;;32.85;16.90;100064.13;5110310;28;20214;-50
2022/04/14 09:05:48;;;;;;;6.57;5.93;;;;;;;33.77;16.30;100063.31;5107404;28;20225;-51
2022/04/14 09:08:17;;;;;;;6.70;6.20;;;;;;;34.37;15.94;100064.34;5110715;28;20214;-51
2022/04/14 09:10:44;;;;;;;6.55;5.47;;;;;;;34.58;15.83;100067.97;5110849;28;20248;-50
2022/04/14 09:13:13;;;;;;;6.45;5.85;;;;;;;34.26;16.08;100060.25;5110021;28;20226;-52
2022/04/14 09:15:40;;;;;;;6.85;6.32;;;;;;;34.36;16.09;100062.66;5109301;28;20225;-52
2022/04/14 09:18:08;;;;;;;7.70;5.93;;;;;;;34.86;15.23;100057.41;5110458;28;20215;-52
2022/04/14 09:20:37;;;;;;;6.15;5.55;;;;;;;34.91;14.99;100054.97;5110666;28;20226;-52
2022/04/14 09:23:20;;;;;;;7.13;5.95;;;;;;;35.16;15.09;100044.69;5110150;28;20218;-51
2022/04/14 09:25:49;;;;;;;6.45;5.93;;;;;;;33.02;16.41;100054.16;5109541;28;20317;-50
2022/04/14 09:28:17;;;;;;;7.45;6.05;;;;;;;32.75;16.75;100042.84;5110165;28;20222;-51
2022/04/14 09:30:59;;;;;;;6.70;6.13;;;;;;;34.25;15.79;100045.06;5110849;28;20309;-51
2022/04/14 09:33:26;;;;;;;6.75;6.05;;;;;;;34.86;15.22;100043.94;5110081;28;20271;-50
2022/04/14 09:36:11;;;;;;;6.45;5.70;;;;;;;34.15;15.50;100044.47;5110273;28;20223;-50
2022/04/14 09:38:57;;;;;;;6.93;6.35;;;;;;;33.64;16.21;100035.28;5110168;28;20249;-51
2022/04/14 09:41:31;;;;;;;7.75;7.03;;;;;;;33.68;16.20;100033.91;5109352;28;20222;-51
2022/04/14 09:44:00;;;;;;;6.70;6.07;;;;;;;34.06;15.67;100034.81;5109966;28;20217;-51
2022/04/14 09:46:27;;;;;;;6.22;5.60;;;;;;;32.87;16.35;100037.91;5109828;28;20230;-51
2022/04/14 09:49:06;;;;;;;6.10;5.28;;;;;;;33.71;16.06;100026.34;5109908;28;20236;-50
2022/04/14 09:51:35;;;;;;;5.57;4.82;;;;;;;33.45;15.75;100034.75;5110022;28;20726;-51
2022/04/14 09:54:14;;;;;;;11.50;5.78;;;;;;;31.85;16.18;100025.16;5110395;28;20281;-51
2022/04/14 09:56:43;;;;;;;9.00;5.10;;;;;;;32.25;16.43;100020.81;5091375;28;20186;-50
2022/04/14 09:59:12;;;;;;;7.25;5.45;;;;;;;31.99;16.78;100010.22;5104495;28;20294;-51
2022/04/14 10:01:39;;;;;;;6.43;5.75;;;;;;;28.96;19.05;100001.66;5099786;28;20190;-51
2022/04/14 10:04:07;;;;;;;80.38;10.07;;;;;;;27.46;20.62;100003.41;5099026;28;20207;-50
2022/04/14 10:06:34;;;;;;;9.85;6.00;;;;;;;25.59;22.11;99993.16;5097796;28;20699;-51
2022/04/14 10:09:02;;;;;;;18.98;6.78;;;;;;;25.20;22.98;99990.16;5099046;28;20198;-51
2022/04/14 10:11:34;;;;;;;8.68;5.45;;;;;;;23.95;24.25;99993.06;5099914;28;20191;-53
2022/04/14 10:14:12;;;;;;;9.20;5.47;;;;;;;23.38;24.85;100012.34;5099642;28;20205;-52
2022/04/14 10:16:40;;;;;;;6.43;4.95;;;;;;;22.60;24.77;99999.44;5099992;28;20191;-52
2022/04/14 10:19:09;;;;;;;6.22;4.82;;;;;;;22.30;24.73;99994.50;5099142;28;20647;-52
2022/04/14 10:21:37;;;;;;;5.75;5.28;;;;;;;21.85;25.27;100002.91;5097447;28;20195;-53
2022/04/14 10:24:05;;;;;;;27.55;6.47;;;;;;;21.55;25.39;99998.72;5098505;28;20202;-53
2022/04/14 10:26:35;;;;;;;11.88;4.75;;;;;;;21.17;26.01;99984.50;5099542;28;20222;-52
2022/04/14 10:29:03;;;;;;;9.88;5.10;;;;;;;21.42;26.02;99984.63;5102123;28;20195;-51
2022/04/14 10:31:32;;;;;;;5.60;5.03;;;;;;;21.43;26.30;99981.06;5101796;28;20203;-51
2022/04/14 10:34:04;;;;;;;6.45;4.25;;;;;;;21.31;25.74;99980.06;5103618;28;20278;-52
2022/04/14 10:36:31;;;;;;;9.77;4.70;;;;;;;21.63;24.92;99974.44;5103417;28;20191;-52
2022/04/14 10:39:00;;;;;;;14.77;6.43;;;;;;;21.92;25.05;99988.31;5103529;28;20622;-52
2022/04/14 10:41:31;;;;;;;5.55;5.03;;;;;;;22.03;25.39;99975.25;5102921;28;20201;-52
2022/04/14 10:44:02;;;;;;;4.75;4.35;;;;;;;21.95;25.27;99970.47;5103654;28;20220;-52
2022/04/14 10:46:40;;;;;;;6.40;4.15;;;;;;;22.16;24.17;99972.59;5103081;28;20211;-52
2022/04/14 10:49:14;;;;;;;6.93;4.10;;;;;;;22.44;23.99;99967.94;5105351;27;20198;-52
2022/04/14 10:51:41;;;;;;;5.05;4.57;;;;;;;22.19;24.18;99970.59;5113759;27;20191;-51
2022/04/14 10:54:09;;;;;;;5.50;5.00;;;;;;;21.82;23.89;99971.38;5113598;27;20667;-50
2022/04/14 10:56:51;;;;;;;5.30;4.80;;;;;;;21.55;24.24;99942.41;5106937;27;20256;-51
2022/04/14 10:59:21;;;;;;;4.32;4.03;;;;;;;21.89;24.05;99964.75;5103310;28;20581;-51
2022/04/14 11:01:57;;;;;;;4.18;3.88;;;;;;;21.72;23.22;99968.53;5102462;28;20241;-53
2022/04/14 11:04:29;;;;;;;4.60;3.78;;;;;;;21.82;23.03;99968.75;5103333;28;20198;-52
2022/04/14 11:06:59;;;;;;;16.92;11.27;;;;;;;21.91;23.23;99954.91;5103002;28;20712;-52
2022/04/14 11:09:55;;;;;;;8.23;7.10;;;;;;;21.92;21.76;99960.09;5102141;28;20195;-51
2022/04/14 11:12:23;;;;;;;5.40;5.00;;;;;;;22.14;21.11;99962.13;5103001;28;20667;-52
2022/04/14 11:14:55;;;;;;;18.00;9.80;;;;;;;22.36;21.15;99956.19;5102835;28;20191;-50
2022/04/14 11:17:48;;;;;;;5.60;4.50;;;;;;;22.33;22.72;99957.25;5101637;28;20194;-50
2022/04/14 11:20:17;;;;;;;5.20;4.50;;;;;;;22.21;23.05;99955.47;5096039;28;20645;-51
2022/04/14 11:23:03;;;;;;;5.05;4.60;;;;;;;22.11;23.33;99948.28;5102028;28;20599;-50
2022/04/14 11:25:44;;;;;;;4.50;4.10;;;;;;;21.99;23.44;99944.69;5103038;28;20190;-50
2022/04/14 11:28:25;;;;;;;4.75;4.35;;;;;;;21.90;23.07;99945.28;5102781;28;20609;-52
2022/04/14 11:30:55;;;;;;;4.47;4.18;;;;;;;21.65;22.96;99936.41;5102216;28;21399;-53
2022/04/14 11:33:25;;;;;;;5.05;4.05;;;;;;;21.65;22.97;99938.19;5102901;28;20195;-53